メンフィス の空港の天気 - METARとTAF

メンフィス国際空港 ( KMEM / MEM ) - アメリカ テネシー州メンフィス
飛行場実況気象(Metar)
観測時間01/16 12:54 CST (01/16 18:54 UTC)
風向・風速北北西 5m/s
視程10km以上
天気現象
全天の8割程度の雲 雲底高度 730m
気温2.8℃
湿度76%
気圧1010.9hPa
METARKMEM 161854Z 33009KT 10SM BKN024 03/M01 A2985 RMK AO2 SLP109 T00281011 $
過去の天気等 Google飛行場航空写真 Wunderground天気予報

過去48時間のMETAR

飛行場予報(TAF)
発表時間: 1/16 11:43 CST (1/16 17:43 UTC)
予報対象時間: 16日12時 CST ~ 17日18時 CST
風向・風速北北西 6m/s 瞬間風速 10m/s
視程10km以上
全天の4割程度の雲 雲底高度 300m
全天を覆う雲 雲底高度 640m
16日15時 CST から
風向・風速北西 4m/s
視程10km以上
全天の4割程度の雲 雲底高度 610m
17日9時 CST から
風向・風速北西 5m/s
視程10km以上
全天の8割程度の雲 雲底高度 610m
17日16時 CST から
風向・風速西北西 3m/s
視程10km以上
全天の4割程度の雲 雲底高度 1520m
KMEM 161743Z 1618/1724 33012G20KT P6SM SCT010 OVC021
FM162100 32008KT P6SM SCT020
FM171500 31009KT P6SM BKN020
FM172200 29005KT P6SM SCT050